Westford, VT (05494)

3:30 AM EST op 31 januari 2015 (GMT -0500)
APRSWXNET Westford VT US | Change Station
CLOSE
Current Station
Persoonlijk weerstation
Location: Westford, VT
Geometrische hoogte: 849 ft
Nabije weerstations
Actief advies: Wind Chill Advisory Actieve aankondiging: Local Storm Report

Hoogte 849 ft 44.63 °N, 73.04 °W | Updated 36 minutes ago

Merendeels bewolkt
Merendeels bewolkt
-4 °F
Voelt als -13 °F
N
4
Wind Variabel Wind van NW
Gusts 13.0 mijl/u

Vandaag
Hoog -- | Laag -- °F
--% Kans op neerslag
Gisteren
Hoog -- | Laag -- °F
Precip. -- inches
7:12 AM 4:59 PM
Wassende maan, 88% visible
Druk 30.17 inches
Zicht 10.0 mijlen
Wolken Geheel bewolkt 3500 ft
Gevoelstemperatuur -13 °F
Dauwpunt -8 °F
Vochtigheid 82%
Neerslag 0.00 inches
Dikte sneeuw Niet beschikbaar.
UV 0 van de 12
Pollen .10 van de 12
Luchtkwaliteit Niet beschikbaar.
Flu Activity Niet beschikbaar.
METAR KBTV 310754Z 01010KT 10SM OVC035 M18/M23 A3014 RMK AO2 SLP214 T11781233

More Conditions Fewer Conditions

Druk 30.17 inches
Zicht 10.0 mijlen
Wolken Geheel bewolkt 3500 ft
Gevoelstemperatuur -13 °F
Dauwpunt -8 °F
Vochtigheid 82%
Neerslag 0.00 inches
Dikte sneeuw Niet beschikbaar.
UV 0 van de 12
Pollen .10 van de 12
Luchtkwaliteit Niet beschikbaar.
Flu Activity Niet beschikbaar.
METAR KBTV 310754Z 01010KT 10SM OVC035 M18/M23 A3014 RMK AO2 SLP214 T11781233

More Conditions Fewer Conditions

10-Day Weather Forecast

Almanac

Astronomie

Jan. 31, 2015 Opkomst Ondergang
Werkelijke tijd
Burgerlijke schemering
Nautische schemering
Astronomische schemering
Maan
Golflengte van het zichtbare licht
Daglengte
Tomorrow will be .
, % of the Moon is Illuminated

Extremen vandaag

State Highs State Lows

Community

WunderPhotos

Upload Photos

1,792,021 foto’s ge-upload!

WunderBlogs® & News

Nearby

Luchtkwaliteit

  Luchtkwaliteit LK-index Verontreinigende stof
Not available.

Dikte sneeuw

Station Depth Geometrische hoogte

Aardbevingen

Stad Distance Mag. Time & Date
Minimum magnitude displayed is 2.5.

Watertemperatuur langs de kust

Plaats Temperatuur

Nabije weerstations